Time;durP1;ratioP1;P1;durP2;ratioP2;P2;SDS_P1;SDS_P2;PMS_P1;PMS_P2;Temp;Humidity;BMP_temperature;BMP_pressure;BME280_temperature;BME280_humidity;BME280_pressure;Samples;Min_cycle;Max_cycle;Signal;HPM_P1;HPM_P2
2023/06/03 00:01:32;;;;;;;0.77;0.77;;;21.30;69.90;;;;;;5053623;28;20025;-76
2023/06/03 00:03:59;;;;;;;0.88;0.70;;;21.40;70.20;;;;;;5053730;28;20029;-76
2023/06/03 00:06:25;;;;;;;1.05;0.65;;;21.40;70.10;;;;;;5053472;28;20078;-76
2023/06/03 00:08:50;;;;;;;1.15;0.70;;;21.50;72.10;;;;;;5053477;28;20420;-76
2023/06/03 00:11:16;;;;;;;0.90;0.70;;;;;;;;;;5053143;28;20068;-76
2023/06/03 00:13:42;;;;;;;1.20;0.70;;;21.30;69.90;;;;;;5052766;28;20565;-76
2023/06/03 00:16:08;;;;;;;0.95;0.63;;;21.10;70.00;;;;;;5053091;28;20021;-76
2023/06/03 00:18:33;;;;;;;0.47;0.47;;;21.20;69.80;;;;;;5052950;28;20029;-76
2023/06/03 00:21:01;;;;;;;0.70;0.60;;;20.90;69.70;;;;;;5052924;28;20041;-76
2023/06/03 00:23:27;;;;;;;1.55;0.70;;;21.30;69.60;;;;;;5052865;28;20036;-76
2023/06/03 00:25:53;;;;;;;1.02;0.60;;;21.20;69.80;;;;;;5052849;28;20403;-76
2023/06/03 00:28:19;;;;;;;1.02;0.55;;;21.10;70.10;;;;;;5052860;28;20025;-76
2023/06/03 00:30:45;;;;;;;0.90;0.80;;;21.30;70.00;;;;;;5052966;28;20096;-76
2023/06/03 00:33:11;;;;;;;1.25;0.68;;;21.20;69.90;;;;;;5052711;28;20468;-76
2023/06/03 00:35:36;;;;;;;0.82;0.60;;;21.00;69.90;;;;;;5052718;28;20071;-76
2023/06/03 00:38:02;;;;;;;1.40;0.60;;;20.90;69.80;;;;;;5052564;28;20083;-76
2023/06/03 00:40:28;;;;;;;1.40;0.77;;;21.30;69.90;;;;;;5052578;28;20036;-76
2023/06/03 00:42:54;;;;;;;1.70;0.70;;;21.20;70.30;;;;;;5052559;28;20021;-76
2023/06/03 00:45:19;;;;;;;0.55;0.40;;;21.30;70.10;;;;;;5052556;28;20103;-75
2023/06/03 00:47:46;;;;;;;1.17;0.60;;;21.10;70.10;;;;;;5052589;28;20021;-76
2023/06/03 00:50:14;;;;;;;0.70;0.50;;;21.00;70.00;;;;;;5051512;28;20448;-76
2023/06/03 00:52:41;;;;;;;1.00;0.60;;;21.10;70.20;;;;;;5052563;28;20142;-75
2023/06/03 00:55:07;;;;;;;0.75;0.55;;;21.10;70.00;;;;;;5052543;28;20017;-76
2023/06/03 00:57:33;;;;;;;0.90;0.60;;;21.10;69.90;;;;;;5052277;28;20499;-76
2023/06/03 00:59:59;;;;;;;1.38;0.73;;;21.10;70.10;;;;;;5052318;28;20057;-76
2023/06/03 01:02:25;;;;;;;0.90;0.70;;;21.10;70.00;;;;;;5052141;28;20025;-76
2023/06/03 01:04:51;;;;;;;1.65;0.80;;;21.20;70.30;;;;;;5052358;28;20108;-76
2023/06/03 01:07:31;;;;;;;0.95;0.57;;;21.10;70.10;;;;;;5052085;28;20049;-76
2023/06/03 01:10:18;;;;;;;0.30;0.30;;;21.10;70.20;;;;;;5052382;28;20036;-76
2023/06/03 01:12:50;;;;;;;1.15;0.60;;;21.10;70.20;;;;;;5051919;28;20136;-78
2023/06/03 01:15:20;;;;;;;0.65;0.50;;;21.00;70.10;;;;;;5051896;28;20049;-78
2023/06/03 01:17:48;;;;;;;;;;;20.90;48.00;;;;;;5052840;28;20451;-78
2023/06/03 01:20:16;;;;;;;0.68;0.50;;;20.80;70.20;;;;;;5051872;28;20383;-79
2023/06/03 01:22:44;;;;;;;0.77;0.50;;;21.10;70.30;;;;;;5052182;28;20039;-79
2023/06/03 01:25:12;;;;;;;0.50;0.50;;;21.00;70.20;;;;;;5051897;28;20543;-79
2023/06/03 01:27:40;;;;;;;1.60;0.70;;;20.90;47.90;;;;;;5051901;28;20083;-79
2023/06/03 01:30:09;;;;;;;1.48;0.70;;;20.70;70.30;;;;;;5051865;28;20198;-79
2023/06/03 01:32:38;;;;;;;1.55;0.60;;;20.70;70.30;;;;;;5051896;28;20113;-79
2023/06/03 01:35:09;;;;;;;1.27;0.65;;;20.60;69.70;;;;;;5051809;28;20029;-79
2023/06/03 01:37:35;;;;;;;1.10;0.60;;;21.00;69.80;;;;;;5051947;28;20037;-79
2023/06/03 01:40:03;;;;;;;0.82;0.70;;;21.00;70.10;;;;;;5051913;28;20040;-79
2023/06/03 01:42:29;;;;;;;0.90;0.60;;;21.00;70.10;;;;;;5052159;28;20029;-79
2023/06/03 01:45:03;;;;;;;0.80;0.57;;;21.00;69.90;;;;;;5051795;28;20040;-79
2023/06/03 01:47:30;;;;;;;0.57;0.55;;;20.70;70.10;;;;;;5051889;28;20025;-79
2023/06/03 01:49:56;;;;;;;0.75;0.60;;;21.00;70.10;;;;;;5052043;28;20061;-79
2023/06/03 01:52:21;;;;;;;0.50;0.50;;;20.90;69.80;;;;;;5051672;28;20057;-79
2023/06/03 01:54:47;;;;;;;0.93;0.60;;;20.90;70.10;;;;;;5051983;28;20025;-79
2023/06/03 01:57:13;;;;;;;0.80;0.50;;;21.00;70.10;;;;;;5051776;28;20026;-79
2023/06/03 01:59:39;;;;;;;0.73;0.60;;;20.70;69.70;;;;;;5051781;28;20033;-79
2023/06/03 02:02:05;;;;;;;0.95;0.77;;;20.70;69.60;;;;;;5053492;28;20028;-78
2023/06/03 02:04:31;;;;;;;0.63;0.50;;;20.90;70.10;;;;;;5055694;28;20155;-79
2023/06/03 02:07:01;;;;;;;0.45;0.45;;;20.80;69.80;;;;;;5055826;28;20512;-79
2023/06/03 02:09:28;;;;;;;0.40;0.40;;;20.70;69.80;;;;;;5055678;28;20105;-79
2023/06/03 02:11:58;;;;;;;0.68;0.52;;;20.80;70.00;;;;;;5055457;28;20594;-79
2023/06/03 02:14:26;;;;;;;0.50;0.50;;;20.40;69.40;;;;;;5055234;28;20143;-79
2023/06/03 02:16:52;;;;;;;0.47;0.43;;;20.80;70.30;;;;;;5055332;28;20009;-79
2023/06/03 02:19:21;;;;;;;0.45;0.45;;;20.30;69.80;;;;;;5055421;28;20041;-79
2023/06/03 02:21:47;;;;;;;1.02;0.70;;;20.70;69.80;;;;;;5055352;28;20024;-79
2023/06/03 02:24:14;;;;;;;0.57;0.50;;;20.60;47.90;;;;;;5055343;28;20117;-79
2023/06/03 02:26:49;;;;;;;0.40;0.40;;;20.80;70.10;;;;;;5055299;28;20033;-79
2023/06/03 02:29:27;;;;;;;0.57;0.50;;;20.80;70.10;;;;;;5055291;28;20032;-79
2023/06/03 02:31:54;;;;;;;1.50;0.50;;;20.70;70.10;;;;;;5055198;28;20025;-79
2023/06/03 02:34:21;;;;;;;2.35;0.57;;;20.60;69.70;;;;;;5055055;28;20414;-79
2023/06/03 02:36:47;;;;;;;1.30;0.70;;;20.40;69.60;;;;;;5055182;28;20053;-79
2023/06/03 02:39:13;;;;;;;1.95;0.60;;;20.50;69.90;;;;;;5053820;28;20056;-79
2023/06/03 02:41:41;;;;;;;0.52;0.52;;;20.70;69.90;;;;;;5055135;28;20113;-79
2023/06/03 02:44:08;;;;;;;0.65;0.50;;;20.60;69.90;;;;;;5055048;28;20036;-79
2023/06/03 02:46:33;;;;;;;0.82;0.70;;;20.60;69.70;;;;;;5055034;28;20487;-79
2023/06/03 02:49:03;;;;;;;0.80;0.60;;;20.30;69.70;;;;;;5054855;28;20087;-79
2023/06/03 02:51:29;;;;;;;0.67;0.50;;;20.50;69.50;;;;;;5054926;28;20025;-79
2023/06/03 02:53:55;;;;;;;1.83;0.50;;;;;;;;;;5054810;28;20037;-79
2023/06/03 02:56:22;;;;;;;0.98;0.57;;;20.70;70.10;;;;;;5054823;28;20426;-79
2023/06/03 02:58:51;;;;;;;1.42;0.77;;;20.20;66.80;;;;;;5054820;28;20028;-78
2023/06/03 03:01:18;;;;;;;0.50;0.50;;;20.60;70.10;;;;;;5054714;28;20059;-79
2023/06/03 03:03:46;;;;;;;0.60;0.50;;;;;;;;;;5054724;28;20044;-79
2023/06/03 03:06:14;;;;;;;1.38;0.60;;;20.20;69.70;;;;;;5054619;28;20117;-79
2023/06/03 03:08:40;;;;;;;0.75;0.50;;;20.30;70.00;;;;;;5054507;28;20507;-78
2023/06/03 03:11:09;;;;;;;0.50;0.50;;;20.40;47.90;;;;;;5054373;28;20021;-79
2023/06/03 03:13:37;;;;;;;0.73;0.52;;;20.40;69.70;;;;;;5053238;28;20048;-78
2023/06/03 03:16:03;;;;;;;1.40;0.63;;;20.50;69.90;;;;;;5054379;28;20033;-79
2023/06/03 03:18:30;;;;;;;0.52;0.52;;;20.00;69.30;;;;;;5054351;28;20021;-78
2023/06/03 03:20:56;;;;;;;1.55;0.50;;;20.50;70.00;;;;;;5054534;28;20040;-79
2023/06/03 03:23:21;;;;;;;0.70;0.47;;;20.50;69.90;;;;;;5054098;28;20053;-79
2023/06/03 03:25:47;;;;;;;0.47;0.40;;;20.50;70.00;;;;;;5054117;28;20031;-79
2023/06/03 03:28:13;;;;;;;0.60;0.60;;;;;;;;;;5054283;28;20036;-79
2023/06/03 03:30:39;;;;;;;1.25;0.40;;;20.50;57.80;;;;;;5053894;28;20111;-78
2023/06/03 03:33:05;;;;;;;0.98;0.47;;;20.40;69.80;;;;;;5053823;28;20104;-79
2023/06/03 03:35:32;;;;;;;0.70;0.60;;;20.20;69.70;;;;;;5053859;28;20053;-78
2023/06/03 03:38:04;;;;;;;1.05;0.50;;;20.30;70.00;;;;;;5054129;28;20029;-78
2023/06/03 03:40:32;;;;;;;0.75;0.70;;;20.20;48.60;;;;;;5053775;28;20075;-78
2023/06/03 03:42:59;;;;;;;0.60;0.60;;;20.40;70.00;;;;;;5053683;28;20071;-79
2023/06/03 03:45:30;;;;;;;0.65;0.55;;;20.30;69.10;;;;;;5053946;28;20368;-79
2023/06/03 03:48:07;;;;;;;0.57;0.55;;;20.20;51.80;;;;;;5053621;28;20017;-79
2023/06/03 03:50:41;;;;;;;1.10;0.57;;;20.20;70.00;;;;;;5053553;28;20029;-79
2023/06/03 03:53:21;;;;;;;1.00;0.55;;;20.00;69.80;;;;;;5053790;28;20428;-79
2023/06/03 03:55:50;;;;;;;1.02;0.43;;;20.20;69.90;;;;;;5054052;28;20430;-79
2023/06/03 03:58:37;;;;;;;0.75;0.73;;;20.30;69.60;;;;;;5053961;28;20056;-79
2023/06/03 04:01:12;;;;;;;0.75;0.60;;;20.20;70.00;;;;;;5053690;28;20033;-79
2023/06/03 04:03:40;;;;;;;0.40;0.40;;;19.80;70.30;;;;;;5053799;28;20051;-79
2023/06/03 04:06:11;;;;;;;0.88;0.70;;;19.70;69.60;;;;;;5053528;28;20113;-79
2023/06/03 04:08:46;;;;;;;0.63;0.50;;;20.40;71.60;;;;;;5053461;28;20071;-79
2023/06/03 04:11:26;;;;;;;0.65;0.60;;;20.20;70.20;;;;;;5053116;28;20035;-79
2023/06/03 04:13:52;;;;;;;0.75;0.60;;;20.10;47.90;;;;;;5053043;28;20141;-79
2023/06/03 04:16:34;;;;;;;0.70;0.60;;;20.00;69.80;;;;;;5053057;28;20021;-79
2023/06/03 04:19:02;;;;;;;0.52;0.50;;;20.10;69.90;;;;;;5052934;28;20025;-79
2023/06/03 04:21:28;;;;;;;0.80;0.70;;;20.10;70.00;;;;;;5052991;28;20039;-79
2023/06/03 04:23:54;;;;;;;1.38;0.70;;;20.30;70.70;;;;;;5052976;28;20104;-78
2023/06/03 04:26:20;;;;;;;1.08;0.70;;;20.00;70.10;;;;;;5053028;28;20064;-79
2023/06/03 04:28:45;;;;;;;0.85;0.60;;;20.00;69.90;;;;;;5053034;28;20056;-78
2023/06/03 04:31:11;;;;;;;0.68;0.68;;;20.10;70.20;;;;;;5052846;28;20060;-79
2023/06/03 04:33:37;;;;;;;0.68;0.60;;;20.20;70.00;;;;;;5051617;28;20037;-79
2023/06/03 04:36:03;;;;;;;0.60;0.55;;;;;;;;;;5053196;28;20029;-79
2023/06/03 04:38:28;;;;;;;0.80;0.80;;;19.90;66.90;;;;;;5052572;28;20028;-78
2023/06/03 04:40:54;;;;;;;0.77;0.50;;;20.00;70.00;;;;;;5052883;28;20109;-78
2023/06/03 04:43:22;;;;;;;0.63;0.60;;;20.10;70.10;;;;;;5052593;28;20502;-79
2023/06/03 04:45:49;;;;;;;0.63;0.45;;;19.80;69.90;;;;;;5052805;28;20067;-79
2023/06/03 04:48:15;;;;;;;0.68;0.50;;;20.10;70.20;;;;;;5052371;28;20083;-78
2023/06/03 04:50:44;;;;;;;0.70;0.63;;;20.00;70.20;;;;;;5052457;28;20086;-79
2023/06/03 04:53:13;;;;;;;2.15;0.73;;;20.20;70.20;;;;;;5052365;28;20029;-78
2023/06/03 04:55:44;;;;;;;0.60;0.60;;;19.90;70.20;;;;;;5052375;28;20032;-78
2023/06/03 04:58:11;;;;;;;0.55;0.52;;;22.50;71.70;;;;;;5052263;28;20108;-79
2023/06/03 05:00:40;;;;;;;0.60;0.60;;;20.00;70.10;;;;;;5052448;28;20021;-79
2023/06/03 05:03:08;;;;;;;0.77;0.77;;;19.90;69.90;;;;;;5052060;28;20059;-79
2023/06/03 05:05:37;;;;;;;2.15;0.63;;;19.80;70.10;;;;;;5052058;28;20537;-79
2023/06/03 05:08:03;;;;;;;0.55;0.45;;;19.80;70.00;;;;;;5052189;28;20037;-77
2023/06/03 05:10:29;;;;;;;0.50;0.50;;;19.80;69.90;;;;;;5059904;28;20032;-80
2023/06/03 05:12:55;;;;;;;0.60;0.60;;;20.00;70.30;;;;;;5052629;28;20103;-80
2023/06/03 05:15:21;;;;;;;0.70;0.68;;;20.00;70.50;;;;;;5052240;28;20387;-83
2023/06/03 05:17:46;;;;;;;0.85;0.70;;;19.90;70.40;;;;;;5052158;28;20096;-81
2023/06/03 05:20:12;;;;;;;1.05;0.75;;;20.00;70.30;;;;;;5052099;28;20025;-82
2023/06/03 05:22:38;;;;;;;1.00;0.63;;;19.90;70.20;;;;;;5052001;28;20033;-77
2023/06/03 05:25:05;;;;;;;1.27;0.55;;;19.90;70.20;;;;;;5052058;28;20021;-79
2023/06/03 05:27:31;;;;;;;0.80;0.60;;;19.90;70.30;;;;;;5052105;28;20021;-80
2023/06/03 05:29:57;;;;;;;0.82;0.57;;;19.80;70.60;;;;;;5051990;28;20040;-81
2023/06/03 05:32:23;;;;;;;0.95;0.65;;;19.80;56.40;;;;;;5052199;28;20390;-79
2023/06/03 05:34:49;;;;;;;1.25;0.70;;;19.50;70.00;;;;;;5051832;28;20068;-79
2023/06/03 05:37:15;;;;;;;1.35;0.68;;;19.80;70.20;;;;;;5051389;28;20057;-79
2023/06/03 05:39:40;;;;;;;2.75;0.85;;;19.90;70.10;;;;;;5052064;28;20033;-79
2023/06/03 05:42:06;;;;;;;0.50;0.50;;;19.50;69.90;;;;;;5051909;28;20074;-79
2023/06/03 05:44:32;;;;;;;0.80;0.80;;;20.00;70.40;;;;;;5052066;28;20029;-79
2023/06/03 05:46:58;;;;;;;1.38;0.90;;;20.00;70.30;;;;;;5052267;28;20018;-79
2023/06/03 05:49:24;;;;;;;1.02;0.68;;;20.00;70.30;;;;;;5052489;28;20071;-79
2023/06/03 05:51:50;;;;;;;1.95;0.60;;;19.80;70.30;;;;;;5052193;28;20028;-79
2023/06/03 05:54:16;;;;;;;2.97;0.63;;;19.90;70.60;;;;;;5051668;28;20083;-79
2023/06/03 05:56:42;;;;;;;1.58;0.80;;;20.00;70.40;;;;;;5052126;28;20052;-78
2023/06/03 05:59:08;;;;;;;2.13;0.88;;;20.10;70.50;;;;;;5052137;28;20037;-79
2023/06/03 06:01:35;;;;;;;1.95;0.70;;;20.10;70.50;;;;;;5051705;28;20024;-79
2023/06/03 06:04:02;;;;;;;0.70;0.70;;;;;;;;;;5052007;28;20083;-79
2023/06/03 06:06:28;;;;;;;3.45;0.90;;;19.60;70.40;;;;;;5052356;28;20029;-79
2023/06/03 06:08:54;;;;;;;2.08;1.02;;;20.00;70.40;;;;;;5051566;28;20114;-79
2023/06/03 06:11:20;;;;;;;0.70;0.68;;;20.10;70.60;;;;;;5051903;28;20021;-79
2023/06/03 06:13:46;;;;;;;1.23;0.80;;;20.00;70.40;;;;;;5051426;28;20048;-79
2023/06/03 06:16:12;;;;;;;0.73;0.60;;;19.90;48.30;;;;;;5051716;28;20029;-79
2023/06/03 06:18:38;;;;;;;1.60;0.98;;;19.50;70.10;;;;;;5051850;28;20104;-79
2023/06/03 06:21:04;;;;;;;3.90;0.88;;;20.00;70.40;;;;;;5051771;28;20045;-79
2023/06/03 06:23:30;;;;;;;0.95;0.82;;;19.90;70.60;;;;;;5051868;28;20074;-79
2023/06/03 06:25:56;;;;;;;2.03;0.93;;;19.70;70.40;;;;;;5051725;28;20100;-79
2023/06/03 06:28:26;;;;;;;0.90;0.90;;;19.60;70.30;;;;;;5051670;28;20104;-79
2023/06/03 06:30:54;;;;;;;1.58;0.68;;;19.60;70.30;;;;;;5051587;28;20440;-79
2023/06/03 06:33:19;;;;;;;2.80;0.85;;;19.80;70.50;;;;;;5051290;28;20116;-79
2023/06/03 06:35:45;;;;;;;0.70;0.70;;;20.00;70.50;;;;;;5051391;28;20112;-79
2023/06/03 06:38:12;;;;;;;1.17;0.80;;;19.80;70.60;;;;;;5051263;28;20082;-79
2023/06/03 06:40:40;;;;;;;1.10;0.70;;;19.80;70.30;;;;;;5051351;28;20109;-79
2023/06/03 06:43:07;;;;;;;1.98;0.80;;;20.00;70.70;;;;;;5051437;28;20033;-79
2023/06/03 06:45:36;;;;;;;2.78;0.88;;;19.90;70.40;;;;;;5051274;28;20025;-79
2023/06/03 06:48:07;;;;;;;1.55;0.93;;;19.80;70.20;;;;;;5051375;28;20017;-79
2023/06/03 06:50:44;;;;;;;1.08;0.90;;;20.10;71.20;;;;;;5055006;28;20452;-79
2023/06/03 06:53:10;;;;;;;1.02;0.73;;;20.00;70.50;;;;;;5054847;28;20033;-79
2023/06/03 06:55:52;;;;;;;1.08;0.45;;;19.80;70.50;;;;;;5055057;28;20155;-79
2023/06/03 06:58:18;;;;;;;2.47;1.00;;;19.90;70.70;;;;;;5055250;28;20032;-79
2023/06/03 07:00:45;;;;;;;0.93;0.75;;;19.80;48.50;;;;;;5055214;28;20032;-75
2023/06/03 07:03:19;;;;;;;1.55;0.82;;;19.80;48.00;;;;;;5054691;28;20021;-75
2023/06/03 07:05:46;;;;;;;1.27;0.57;;;20.00;70.90;;;;;;5054779;28;20391;-76
2023/06/03 07:08:12;;;;;;;0.65;0.60;;;19.90;70.50;;;;;;5054706;28;20096;-75
2023/06/03 07:10:38;;;;;;;1.10;0.63;;;19.80;48.50;;;;;;5054441;28;20495;-76
2023/06/03 07:13:06;;;;;;;1.23;0.80;;;20.00;70.90;;;;;;5054031;28;20037;-75
2023/06/03 07:15:32;;;;;;;3.08;0.77;;;;;;;;;;5054419;28;20392;-75
2023/06/03 07:17:59;;;;;;;0.93;0.75;;;19.80;71.00;;;;;;5054301;28;20040;-76
2023/06/03 07:20:33;;;;;;;1.77;0.80;;;19.60;70.90;;;;;;5054656;28;20028;-76
2023/06/03 07:22:59;;;;;;;1.58;0.50;;;20.10;71.30;;;;;;5054442;28;20419;-75
2023/06/03 07:25:44;;;;;;;1.55;0.90;;;19.90;71.30;;;;;;5054262;28;20025;-75
2023/06/03 07:28:15;;;;;;;2.92;0.80;;;19.50;70.90;;;;;;5054168;28;20528;-75
2023/06/03 07:30:42;;;;;;;1.10;0.85;;;19.90;71.20;;;;;;5054216;28;20029;-76
2023/06/03 07:33:22;;;;;;;1.20;0.80;;;20.10;71.50;;;;;;5053888;28;20037;-76
2023/06/03 07:35:58;;;;;;;1.52;0.68;;;20.20;48.50;;;;;;5053001;28;20071;-76
2023/06/03 07:38:46;;;;;;;1.38;0.60;;;19.60;70.90;;;;;;5053988;28;20057;-75
2023/06/03 07:41:16;;;;;;;1.15;0.80;;;20.10;70.90;;;;;;5054168;28;20098;-75
2023/06/03 07:43:42;;;;;;;1.60;0.70;;;19.80;71.10;;;;;;5053846;28;20032;-75
2023/06/03 07:46:09;;;;;;;1.48;0.80;;;20.00;58.50;;;;;;5053739;28;20029;-75
2023/06/03 07:48:38;;;;;;;2.15;0.75;;;20.00;70.60;;;;;;5054016;28;20017;-75
2023/06/03 07:51:07;;;;;;;1.50;0.80;;;19.80;70.70;;;;;;5053950;28;20049;-75
2023/06/03 07:53:37;;;;;;;3.90;0.80;;;20.10;71.00;;;;;;5053490;28;20040;-76
2023/06/03 07:56:10;;;;;;;1.40;0.73;;;20.00;60.50;;;;;;5053884;28;20147;-74
2023/06/03 07:58:37;;;;;;;1.60;0.95;;;20.10;71.30;;;;;;5054033;28;20025;-76
2023/06/03 08:01:03;;;;;;;1.33;0.65;;;19.90;71.30;;;;;;5051787;28;20124;-76
2023/06/03 08:03:30;;;;;;;1.35;0.68;;;20.10;71.30;;;;;;5053291;28;20076;-75
2023/06/03 08:05:56;;;;;;;1.45;0.77;;;20.20;71.60;;;;;;5053352;28;20539;-76
2023/06/03 08:08:29;;;;;;;1.20;0.90;;;19.90;71.00;;;;;;5053215;28;20124;-76
2023/06/03 08:10:54;;;;;;;1.02;0.55;;;20.00;49.50;;;;;;5053210;28;20107;-76
2023/06/03 08:13:20;;;;;;;0.70;0.70;;;20.30;71.80;;;;;;5052898;28;20132;-76
2023/06/03 08:15:47;;;;;;;0.77;0.57;;;19.90;71.50;;;;;;5053326;28;20025;-76
2023/06/03 08:18:39;;;;;;;1.45;0.90;;;20.20;62.80;;;;;;5053060;28;20036;-76
2023/06/03 08:21:04;;;;;;;0.85;0.55;;;20.30;71.80;;;;;;5045522;28;20069;-75
2023/06/03 08:23:30;;;;;;;1.15;0.55;;;20.30;72.30;;;;;;5052815;28;20063;-75
2023/06/03 08:26:00;;;;;;;1.25;0.70;;;20.40;72.00;;;;;;5052823;28;20464;-76
2023/06/03 08:28:25;;;;;;;1.08;0.70;;;20.40;72.00;;;;;;5052785;28;20395;-76
2023/06/03 08:30:53;;;;;;;1.88;0.88;;;20.40;50.20;;;;;;5052682;28;20116;-75
2023/06/03 08:33:19;;;;;;;0.93;0.68;;;20.60;72.40;;;;;;5052706;28;20032;-75
2023/06/03 08:35:45;;;;;;;0.98;0.88;;;20.50;72.80;;;;;;5052615;28;20025;-75
2023/06/03 08:38:12;;;;;;;2.30;0.88;;;20.40;72.70;;;;;;5052938;28;20016;-75
2023/06/03 08:40:45;;;;;;;1.45;1.08;;;20.70;72.90;;;;;;5052793;28;20112;-75
2023/06/03 08:43:11;;;;;;;4.25;0.98;;;20.50;72.90;;;;;;5052827;28;20088;-75
2023/06/03 08:45:49;;;;;;;1.45;0.90;;;20.70;73.10;;;;;;5052361;28;20029;-75
2023/06/03 08:48:21;;;;;;;0.98;0.77;;;20.80;73.20;;;;;;5052795;28;20032;-76
2023/06/03 08:50:49;;;;;;;1.45;0.90;;;20.50;73.20;;;;;;5052601;28;20080;-77
2023/06/03 08:53:15;;;;;;;1.77;0.90;;;20.70;73.00;;;;;;5052698;28;20036;-75
2023/06/03 08:55:41;;;;;;;1.35;0.70;;;20.90;73.20;;;;;;5052488;28;20116;-76
2023/06/03 08:58:16;;;;;;;1.08;0.93;;;20.80;73.20;;;;;;5054172;28;20471;-75
2023/06/03 09:00:43;;;;;;;2.72;0.70;;;20.50;72.90;;;;;;5052391;28;20048;-76
2023/06/03 09:03:11;;;;;;;1.80;1.02;;;20.90;63.10;;;;;;5052301;28;20040;-76
2023/06/03 09:05:38;;;;;;;2.03;0.90;;;21.10;73.80;;;;;;5052222;28;20035;-75
2023/06/03 09:08:05;;;;;;;1.75;1.00;;;21.20;73.50;;;;;;5052340;28;20032;-76
2023/06/03 09:10:32;;;;;;;1.27;0.80;;;21.00;51.10;;;;;;5051936;28;20052;-76
2023/06/03 09:12:59;;;;;;;1.02;0.93;;;21.10;73.80;;;;;;5051398;28;20383;-75
2023/06/03 09:15:25;;;;;;;2.78;0.80;;;20.80;73.30;;;;;;5052219;28;20040;-76
2023/06/03 09:17:51;;;;;;;1.17;0.80;;;21.20;73.30;;;;;;5051892;28;20031;-80
2023/06/03 09:20:16;;;;;;;2.30;1.20;;;21.30;73.00;;;;;;5052184;28;20017;-76
2023/06/03 09:22:46;;;;;;;1.30;0.98;;;21.30;72.80;;;;;;5051900;28;20033;-76
2023/06/03 09:25:13;;;;;;;1.98;0.93;;;21.60;73.00;;;;;;5051875;28;20054;-76
2023/06/03 09:27:40;;;;;;;1.08;0.82;;;21.70;53.00;;;;;;5051933;28;20028;-76
2023/06/03 09:30:07;;;;;;;2.83;1.00;;;21.10;72.10;;;;;;5052021;28;20037;-79
2023/06/03 09:32:36;;;;;;;1.38;0.90;;;21.60;72.90;;;;;;5051782;28;20035;-81
2023/06/03 09:35:06;;;;;;;2.08;1.00;;;21.70;72.60;;;;;;5052150;28;20029;-80
2023/06/03 09:37:32;;;;;;;1.73;1.00;;;21.70;57.20;;;;;;5052181;28;20411;-80
2023/06/03 09:40:00;;;;;;;3.20;1.50;;;21.80;72.50;;;;;;5052203;28;20447;-80
2023/06/03 09:42:45;;;;;;;2.78;1.20;;;22.00;72.60;;;;;;5052074;28;20025;-80
2023/06/03 09:45:31;;;;;;;1.35;0.80;;;21.90;72.50;;;;;;5052246;28;20513;-80
2023/06/03 09:47:59;;;;;;;1.70;1.10;;;21.50;72.30;;;;;;5052153;28;20032;-80
2023/06/03 09:50:30;;;;;;;1.02;0.80;;;22.20;72.70;;;;;;5052041;28;20383;-80
2023/06/03 09:52:57;;;;;;;2.22;1.00;;;22.10;50.60;;;;;;5051971;28;20021;-80
2023/06/03 09:55:30;;;;;;;2.20;1.10;;;22.40;61.70;;;;;;5051748;28;20507;-80
2023/06/03 09:58:08;;;;;;;0.85;0.77;;;22.20;72.60;;;;;;5052028;28;20013;-80
2023/06/03 10:00:47;;;;;;;2.70;0.90;;;22.60;60.90;;;;;;5051768;28;20047;-79
2023/06/03 10:03:13;;;;;;;2.17;1.00;;;22.50;72.10;;;;;;5051924;28;20068;-79
2023/06/03 10:05:41;;;;;;;1.13;1.02;;;22.40;63.70;;;;;;5051956;28;20044;-79
2023/06/03 10:08:07;;;;;;;2.45;1.30;;;22.50;50.30;;;;;;5051881;28;20032;-76
2023/06/03 10:10:34;;;;;;;2.30;1.10;;;22.70;72.60;;;;;;5051886;28;20025;-80
2023/06/03 10:13:19;;;;;;;0.90;0.90;;;22.60;50.30;;;;;;5051451;28;20365;-78
2023/06/03 10:15:46;;;;;;;1.35;0.88;;;22.70;72.30;;;;;;5050795;28;20021;-74
2023/06/03 10:18:12;;;;;;;2.53;1.05;;;;;;;;;;5051888;28;20101;-79
2023/06/03 10:20:40;;;;;;;0.88;0.73;;;23.00;52.00;;;;;;5051537;28;20071;-80
2023/06/03 10:23:08;;;;;;;2.50;0.88;;;22.90;72.30;;;;;;5053639;28;20028;-80
2023/06/03 10:25:42;;;;;;;1.63;0.88;;;23.30;72.50;;;;;;5055367;28;20417;-79
2023/06/03 10:28:12;;;;;;;1.20;0.93;;;23.10;71.60;;;;;;5055767;28;20052;-79
2023/06/03 10:30:40;;;;;;;1.10;1.00;;;23.50;71.50;;;;;;5055437;28;20025;-79
2023/06/03 10:33:08;;;;;;;1.85;0.95;;;23.40;70.70;;;;;;5055163;28;20029;-79
2023/06/03 10:35:38;;;;;;;1.02;0.88;;;23.20;48.30;;;;;;5055498;28;20100;-78
2023/06/03 10:38:06;;;;;;;1.05;0.88;;;23.10;70.90;;;;;;5055466;28;20025;-79
2023/06/03 10:40:33;;;;;;;1.25;0.80;;;23.30;69.80;;;;;;5055609;28;20050;-79
2023/06/03 10:42:59;;;;;;;2.08;1.00;;;23.50;70.90;;;;;;5055322;28;20036;-78
2023/06/03 10:45:26;;;;;;;1.23;0.70;;;23.60;65.70;;;;;;5055117;28;20021;-80
2023/06/03 10:48:11;;;;;;;1.30;0.70;;;23.60;71.50;;;;;;5054792;28;20033;-79
2023/06/03 10:50:42;;;;;;;1.75;0.90;;;23.70;69.90;;;;;;5055134;28;20075;-79
2023/06/03 10:53:20;;;;;;;1.58;0.98;;;23.60;69.80;;;;;;5054730;28;20032;-79
2023/06/03 10:56:14;;;;;;;0.90;0.90;;;23.40;69.60;;;;;;5055243;28;20086;-79
2023/06/03 10:58:43;;;;;;;1.77;1.00;;;24.20;69.90;;;;;;5054785;28;20025;-84
2023/06/03 11:01:09;;;;;;;1.02;0.80;;;23.70;69.20;;;;;;5054953;28;20021;-78
2023/06/03 11:03:59;;;;;;;1.77;0.82;;;23.70;69.40;;;;;;5054561;28;20029;-81
2023/06/03 11:06:25;;;;;;;1.23;0.93;;;;;;;;;;5054548;28;20025;-81
2023/06/03 11:09:15;;;;;;;1.83;0.80;;;24.40;68.90;;;;;;5054770;28;20025;-80
2023/06/03 11:11:41;;;;;;;1.95;1.00;;;;;;;;;;5054849;28;20075;-80
2023/06/03 11:14:08;;;;;;;1.52;0.85;;;24.50;69.20;;;;;;5054142;28;20419;-81
2023/06/03 11:16:55;;;;;;;1.05;0.95;;;24.40;70.00;;;;;;5054363;28;20070;-79
2023/06/03 11:19:54;;;;;;;1.67;0.80;;;24.30;70.20;;;;;;5054480;28;20021;-75
2023/06/03 11:22:31;;;;;;;1.10;0.88;;;24.70;69.50;;;;;;5054458;28;20052;-75
2023/06/03 11:25:00;;;;;;;0.77;0.50;;;24.90;69.90;;;;;;5054225;28;20467;-74
2023/06/03 11:27:27;;;;;;;1.58;1.02;;;24.30;69.00;;;;;;5054168;28;20029;-75
2023/06/03 11:29:55;;;;;;;1.90;0.73;;;24.60;69.40;;;;;;5054100;28;20037;-75
2023/06/03 11:32:25;;;;;;;1.10;0.70;;;24.80;47.30;;;;;;5054038;28;20070;-75
2023/06/03 11:35:11;;;;;;;0.88;0.70;;;25.10;69.40;;;;;;5053274;28;20044;-75
2023/06/03 11:37:40;;;;;;;2.67;0.60;;;24.90;47.40;;;;;;5054169;28;20083;-75
2023/06/03 11:40:09;;;;;;;0.77;0.52;;;25.00;68.90;;;;;;5053996;28;20029;-75
2023/06/03 11:42:47;;;;;;;2.78;0.70;;;25.00;47.10;;;;;;5054234;28;20029;-75
2023/06/03 11:45:19;;;;;;;1.20;0.70;;;24.80;67.60;;;;;;5053808;28;20028;-74
2023/06/03 11:47:48;;;;;;;1.23;0.75;;;25.30;69.00;;;;;;5053886;28;20426;-75
2023/06/03 11:50:14;;;;;;;1.20;0.80;;;25.60;68.80;;;;;;5053787;28;20036;-75
2023/06/03 11:52:39;;;;;;;1.70;0.60;;;25.10;68.20;;;;;;5053775;28;20025;-75
2023/06/03 11:55:05;;;;;;;0.88;0.70;;;25.70;68.40;;;;;;5052416;28;20120;-75
2023/06/03 11:57:31;;;;;;;2.90;0.77;;;25.40;46.40;;;;;;5053563;28;20143;-75
2023/06/03 11:59:57;;;;;;;1.40;0.60;;;25.60;67.30;;;;;;5052468;28;20388;-75
2023/06/03 12:02:23;;;;;;;2.63;0.75;;;25.60;67.90;;;;;;5053434;28;20424;-75
2023/06/03 12:04:48;;;;;;;1.30;0.70;;;25.70;68.20;;;;;;5053515;28;20106;-75
2023/06/03 12:07:17;;;;;;;1.55;0.70;;;25.40;67.50;;;;;;5053458;28;20025;-75
2023/06/03 12:09:43;;;;;;;2.92;0.68;;;26.30;67.70;;;;;;5053856;28;20029;-75
2023/06/03 12:12:11;;;;;;;3.17;0.98;;;25.80;44.70;;;;;;5053372;28;20025;-75
2023/06/03 12:14:38;;;;;;;0.70;0.60;;;26.30;67.50;;;;;;5053123;28;20049;-75
2023/06/03 12:17:13;;;;;;;1.52;0.70;;;25.80;68.10;;;;;;5053250;28;20020;-77
2023/06/03 12:19:47;;;;;;;0.85;0.60;;;26.40;67.80;;;;;;5053192;28;20032;-76
2023/06/03 12:22:19;;;;;;;1.05;0.75;;;25.90;67.50;;;;;;5053444;28;20031;-77
2023/06/03 12:24:45;;;;;;;1.02;0.52;;;26.20;67.40;;;;;;5053604;28;20021;-76
2023/06/03 12:27:24;;;;;;;3.42;0.82;;;26.00;66.50;;;;;;5053120;28;20044;-76
2023/06/03 12:29:57;;;;;;;0.63;0.60;;;26.40;67.20;;;;;;5053059;28;20075;-77
2023/06/03 12:32:28;;;;;;;2.28;0.70;;;26.20;66.40;;;;;;5053047;28;20119;-76
2023/06/03 12:34:55;;;;;;;1.50;0.65;;;26.60;65.80;;;;;;5052907;28;20407;-76
2023/06/03 12:37:39;;;;;;;0.52;0.52;;;26.40;65.20;;;;;;5052928;28;20071;-76
2023/06/03 12:40:05;;;;;;;0.95;0.70;;;26.40;56.90;;;;;;5053257;28;20108;-76
2023/06/03 12:42:36;;;;;;;0.82;0.50;;;26.40;65.60;;;;;;5052741;28;20029;-76
2023/06/03 12:45:02;;;;;;;1.52;0.68;;;26.90;65.40;;;;;;5052703;28;20487;-76
2023/06/03 12:47:28;;;;;;;0.50;0.50;;;26.30;65.50;;;;;;5052542;28;20029;-76
2023/06/03 12:50:06;;;;;;;1.58;0.63;;;26.70;65.40;;;;;;5052828;28;20440;-76
2023/06/03 12:52:36;;;;;;;0.60;0.45;;;26.50;64.60;;;;;;5052549;28;20502;-76
2023/06/03 12:55:03;;;;;;;0.52;0.52;;;26.80;64.60;;;;;;5052856;28;20041;-76
2023/06/03 12:57:31;;;;;;;0.60;0.60;;;26.60;65.00;;;;;;5052387;28;20041;-77
2023/06/03 13:00:11;;;;;;;3.10;0.77;;;26.80;65.50;;;;;;5052578;28;20029;-76